createdAt,value
2019-03-19T00:01:08.648Z,51.17
2019-03-19T00:03:39.143Z,51.97
2019-03-19T00:06:09.683Z,48.27
2019-03-19T00:08:40.176Z,59.33
2019-03-19T00:11:10.729Z,50.73
2019-03-19T00:13:41.263Z,57.07
2019-03-19T00:16:11.753Z,54.20
2019-03-19T00:18:43.270Z,54.27
2019-03-19T00:21:14.078Z,54.53
2019-03-19T00:23:44.627Z,52.97
2019-03-19T00:26:15.157Z,46.97
2019-03-19T00:28:45.742Z,48.17
2019-03-19T00:31:16.455Z,41.77
2019-03-19T00:33:46.940Z,44.57
2019-03-19T00:36:17.707Z,44.60
2019-03-19T00:38:49.162Z,41.23
2019-03-19T00:41:20.877Z,37.10
2019-03-19T00:43:51.311Z,45.90
2019-03-19T00:46:21.874Z,42.20
2019-03-19T00:48:52.352Z,44.57
2019-03-19T00:51:23.263Z,36.70
2019-03-19T00:53:53.779Z,38.03
2019-03-19T00:56:24.338Z,34.40
2019-03-19T00:58:57.075Z,33.20
2019-03-19T01:01:27.712Z,34.47
2019-03-19T01:03:58.239Z,35.70
2019-03-19T01:06:28.940Z,40.07
2019-03-19T01:08:59.450Z,37.83
2019-03-19T01:11:30.078Z,32.63
2019-03-19T01:14:00.604Z,33.30
2019-03-19T01:16:32.805Z,39.13
2019-03-19T01:19:03.425Z,34.33
2019-03-19T01:21:34.014Z,29.03
2019-03-19T01:24:04.588Z,27.23
2019-03-19T01:26:35.308Z,37.77
2019-03-19T01:29:06.080Z,33.30
2019-03-19T01:31:39.074Z,31.53
2019-03-19T01:34:09.585Z,28.83
2019-03-19T01:36:40.175Z,30.20
2019-03-19T01:39:10.656Z,31.63
2019-03-19T01:41:41.231Z,39.23
2019-03-19T01:44:11.703Z,31.23
2019-03-19T01:46:42.278Z,30.47
2019-03-19T01:49:12.733Z,34.30
2019-03-19T01:51:43.277Z,27.90
2019-03-19T01:54:13.835Z,31.70
2019-03-19T01:56:44.328Z,29.90
2019-03-19T01:59:14.857Z,28.97
2019-03-19T02:01:47.674Z,27.67
2019-03-19T02:04:18.204Z,33.67
2019-03-19T02:06:48.773Z,30.53
2019-03-19T02:09:19.293Z,29.70
2019-03-19T02:11:49.841Z,29.17
2019-03-19T02:14:20.417Z,31.03
2019-03-19T02:16:51.062Z,30.50
2019-03-19T02:19:21.534Z,28.53
2019-03-19T02:21:53.121Z,35.60
2019-03-19T02:24:23.567Z,41.80
2019-03-19T02:26:54.100Z,35.37
2019-03-19T02:29:24.670Z,36.10
2019-03-19T02:31:55.164Z,41.37
2019-03-19T02:34:25.601Z,39.90
2019-03-19T02:36:56.261Z,35.10
2019-03-19T02:39:26.672Z,40.00
2019-03-19T02:41:57.186Z,34.97
2019-03-19T02:44:27.622Z,30.90
2019-03-19T02:46:58.222Z,29.13
2019-03-19T02:49:28.670Z,31.10
2019-03-19T02:51:59.157Z,29.93
2019-03-19T02:54:29.798Z,26.03
2019-03-19T02:57:01.400Z,37.23
2019-03-19T02:59:31.975Z,34.43
2019-03-19T03:02:02.516Z,36.93
2019-03-19T03:04:33.141Z,29.63
2019-03-19T03:07:03.778Z,35.43
2019-03-19T03:09:34.356Z,32.40
2019-03-19T03:12:04.821Z,33.70
2019-03-19T03:14:36.315Z,32.37
2019-03-19T03:17:06.831Z,35.63
2019-03-19T03:19:37.385Z,30.03
2019-03-19T03:22:07.914Z,24.27
2019-03-19T03:24:38.629Z,28.20
2019-03-19T03:27:09.170Z,21.00
2019-03-19T03:29:39.733Z,21.50
2019-03-19T03:32:10.225Z,21.27
2019-03-19T03:34:40.748Z,14.83
2019-03-19T03:37:11.276Z,19.23
2019-03-19T03:39:41.820Z,17.87
2019-03-19T03:42:12.358Z,20.60
2019-03-19T03:44:42.963Z,12.33
2019-03-19T03:47:13.721Z,21.37
2019-03-19T03:49:44.241Z,14.27
2019-03-19T03:52:14.682Z,13.67
2019-03-19T03:54:45.178Z,11.93
2019-03-19T03:57:15.633Z,16.17
2019-03-19T03:59:46.174Z,18.37
2019-03-19T04:02:16.633Z,22.10
2019-03-19T04:04:47.155Z,18.23
2019-03-19T04:07:17.658Z,13.57
2019-03-19T04:09:50.706Z,15.00
2019-03-19T04:12:21.376Z,18.77
2019-03-19T04:14:51.897Z,17.10
2019-03-19T04:17:22.420Z,17.17
2019-03-19T04:19:52.918Z,21.60
2019-03-19T04:22:23.522Z,15.43
2019-03-19T04:24:54.191Z,17.73
2019-03-19T04:27:24.643Z,15.90
2019-03-19T04:29:56.154Z,23.07
2019-03-19T04:32:26.537Z,15.33
2019-03-19T04:34:57.070Z,19.83
2019-03-19T04:37:27.627Z,18.10
2019-03-19T04:39:58.125Z,26.07
2019-03-19T04:42:29.661Z,25.93
2019-03-19T04:45:00.351Z,24.00
2019-03-19T04:47:30.793Z,15.97
2019-03-19T04:50:01.333Z,25.70
2019-03-19T04:52:31.811Z,17.73
2019-03-19T04:55:03.646Z,16.60
2019-03-19T04:57:34.259Z,34.70
2019-03-19T05:00:05.411Z,26.37
2019-03-19T05:02:35.959Z,20.43
2019-03-19T05:05:07.010Z,22.90
2019-03-19T05:07:37.457Z,23.83
2019-03-19T05:10:09.821Z,24.40
2019-03-19T05:12:40.435Z,22.47
2019-03-19T05:15:10.907Z,25.20
2019-03-19T05:17:41.438Z,24.57
2019-03-19T05:20:11.983Z,26.87
2019-03-19T05:22:44.569Z,32.70
2019-03-19T05:25:15.287Z,23.20
2019-03-19T05:27:45.835Z,26.80
2019-03-19T05:30:18.892Z,35.03
2019-03-19T05:32:49.444Z,30.90
2019-03-19T05:35:21.913Z,32.83
2019-03-19T05:37:52.670Z,34.17
2019-03-19T05:40:23.236Z,31.67
2019-03-19T05:42:53.867Z,35.23
2019-03-19T05:45:24.406Z,53.17
2019-03-19T05:47:54.891Z,31.03
2019-03-19T05:50:25.745Z,29.47
2019-03-19T05:52:56.530Z,33.17
2019-03-19T05:55:27.020Z,49.17
2019-03-19T05:57:57.577Z,31.73
2019-03-19T06:00:29.891Z,34.73
2019-03-19T06:03:00.562Z,33.20
2019-03-19T06:05:31.262Z,30.83
2019-03-19T06:08:01.778Z,48.90
2019-03-19T06:10:32.299Z,32.20
2019-03-19T06:13:02.814Z,24.00
2019-03-19T06:15:34.272Z,35.50
2019-03-19T06:18:04.964Z,40.83
2019-03-19T06:20:35.417Z,49.47
2019-03-19T06:23:05.907Z,55.60
2019-03-19T06:25:36.379Z,32.17
2019-03-19T06:28:06.831Z,43.90
2019-03-19T06:30:37.389Z,32.07
2019-03-19T06:33:08.377Z,34.77
2019-03-19T06:35:38.849Z,74.80
2019-03-19T06:38:09.422Z,42.80
2019-03-19T06:40:39.850Z,46.27
2019-03-19T06:43:11.634Z,38.57
2019-03-19T06:45:42.120Z,40.43
2019-03-19T06:48:12.730Z,38.27
2019-03-19T06:50:45.367Z,41.93
2019-03-19T06:53:16.305Z,28.30
2019-03-19T06:55:46.813Z,33.10
2019-03-19T06:58:17.511Z,31.97
2019-03-19T07:00:48.039Z,30.33
2019-03-19T07:03:18.788Z,26.07
2019-03-19T07:05:49.232Z,27.53
2019-03-19T07:08:19.826Z,27.00
2019-03-19T07:10:50.304Z,26.93
2019-03-19T07:13:20.762Z,29.47
2019-03-19T07:15:51.294Z,29.13
2019-03-19T07:18:21.736Z,16.60
2019-03-19T07:20:52.276Z,36.07
2019-03-19T07:23:22.727Z,19.03
2019-03-19T07:25:53.292Z,42.90
2019-03-19T07:28:23.637Z,30.20
2019-03-19T07:30:54.150Z,27.43
2019-03-19T07:33:24.550Z,26.40
2019-03-19T07:35:55.011Z,18.53
2019-03-19T07:38:25.508Z,32.17
2019-03-19T07:40:56.070Z,15.33
2019-03-19T07:43:27.641Z,24.97
2019-03-19T07:45:58.125Z,15.90
2019-03-19T07:48:28.804Z,28.23
2019-03-19T07:50:59.307Z,24.67
2019-03-19T07:53:29.822Z,43.13
2019-03-19T07:56:00.409Z,14.93
2019-03-19T07:58:40.672Z,23.53
2019-03-19T08:01:03.166Z,16.57
2019-03-19T08:03:33.661Z,17.40
2019-03-19T08:06:04.099Z,16.40
2019-03-19T08:08:34.609Z,13.97
2019-03-19T08:11:05.143Z,18.43
2019-03-19T08:13:35.597Z,26.97
2019-03-19T08:16:06.144Z,13.37
2019-03-19T08:18:36.582Z,31.07
2019-03-19T08:21:07.997Z,18.03
2019-03-19T08:23:38.445Z,14.37
2019-03-19T08:26:08.945Z,19.60
2019-03-19T08:28:39.481Z,14.83
2019-03-19T08:31:09.951Z,17.93
2019-03-19T08:33:40.444Z,19.30
2019-03-19T08:36:11.125Z,24.37
2019-03-19T08:38:41.728Z,18.53
2019-03-19T08:41:12.280Z,30.57
2019-03-19T08:43:42.796Z,44.33
2019-03-19T08:46:13.360Z,18.63
2019-03-19T08:48:44.907Z,18.37
2019-03-19T08:51:15.422Z,29.90
2019-03-19T08:53:45.954Z,15.80
2019-03-19T08:56:16.540Z,23.33
2019-03-19T08:58:46.959Z,18.93
2019-03-19T09:01:18.378Z,21.00
2019-03-19T09:03:48.852Z,24.53
2019-03-19T09:06:19.407Z,20.40
2019-03-19T09:08:50.453Z,21.23
2019-03-19T09:11:21.067Z,21.97
2019-03-19T09:13:51.599Z,36.27
2019-03-19T09:16:22.117Z,19.47
2019-03-19T09:18:52.529Z,9.80
2019-03-19T09:21:23.009Z,25.53
2019-03-19T09:23:53.445Z,16.33
2019-03-19T09:26:23.920Z,20.90
2019-03-19T09:28:54.343Z,32.20
2019-03-19T09:31:24.880Z,20.37
2019-03-19T09:33:55.288Z,14.90
2019-03-19T09:36:25.796Z,45.67
2019-03-19T09:38:56.229Z,15.47
2019-03-19T09:41:26.716Z,16.77
2019-03-19T09:43:58.195Z,21.77
2019-03-19T09:46:28.659Z,19.33
2019-03-19T09:48:59.058Z,14.50
2019-03-19T09:51:29.496Z,15.63
2019-03-19T09:53:59.936Z,13.00
2019-03-19T09:56:30.384Z,20.37
2019-03-19T09:59:00.828Z,23.90
2019-03-19T10:01:31.306Z,14.33
2019-03-19T10:04:01.785Z,23.63
2019-03-19T10:06:32.399Z,12.73
2019-03-19T10:09:02.952Z,22.37
2019-03-19T10:11:33.715Z,23.43
2019-03-19T10:14:04.302Z,22.67
2019-03-19T10:16:34.820Z,54.00
2019-03-19T10:19:05.348Z,17.00
2019-03-19T10:21:35.901Z,18.57
2019-03-19T10:24:06.436Z,14.40
2019-03-19T10:26:36.969Z,23.60
2019-03-19T10:29:07.539Z,19.90
2019-03-19T10:31:37.974Z,23.43
2019-03-19T10:34:08.518Z,20.70
2019-03-19T10:36:39.041Z,17.53
2019-03-19T10:39:09.756Z,17.70
2019-03-19T10:41:40.173Z,17.93
2019-03-19T10:44:10.650Z,21.83
2019-03-19T10:46:41.075Z,11.77
2019-03-19T10:49:11.576Z,14.20
2019-03-19T10:51:41.994Z,15.83
2019-03-19T10:54:12.450Z,20.27
2019-03-19T10:56:43.839Z,14.33
2019-03-19T10:59:14.399Z,12.23
2019-03-19T11:01:45.003Z,15.83
2019-03-19T11:04:15.554Z,68.73
2019-03-19T11:06:46.024Z,18.27
2019-03-19T11:09:16.516Z,12.83
2019-03-19T11:11:47.773Z,21.57
2019-03-19T11:14:18.334Z,13.87
2019-03-19T11:16:48.718Z,22.17
2019-03-19T11:19:19.210Z,15.47
2019-03-19T11:21:49.672Z,60.07
2019-03-19T11:24:20.144Z,11.60
2019-03-19T11:26:50.636Z,34.10
2019-03-19T11:29:21.256Z,31.97
2019-03-19T11:31:51.641Z,14.57
2019-03-19T11:34:22.150Z,22.07
2019-03-19T11:36:57.839Z,19.37
2019-03-19T11:39:24.906Z,17.17
2019-03-19T11:41:55.434Z,17.60
2019-03-19T11:44:25.962Z,15.70
2019-03-19T11:46:56.476Z,16.23
2019-03-19T11:49:26.922Z,16.73
2019-03-19T11:51:57.516Z,10.03
2019-03-19T11:54:27.975Z,15.57
2019-03-19T11:56:58.476Z,21.30
2019-03-19T11:59:29.010Z,14.43
2019-03-19T12:01:59.462Z,13.43
2019-03-19T12:04:30.035Z,26.33
2019-03-19T12:07:00.466Z,9.33
2019-03-19T12:09:30.941Z,8.70
2019-03-19T12:12:01.454Z,13.10
2019-03-19T12:14:31.941Z,23.07
2019-03-19T12:17:02.414Z,18.73
2019-03-19T12:19:32.900Z,15.63
2019-03-19T12:22:03.483Z,7.70
2019-03-19T12:24:33.915Z,10.07
2019-03-19T12:27:04.369Z,11.10
2019-03-19T12:29:34.801Z,10.33
2019-03-19T12:32:05.524Z,7.43
2019-03-19T12:34:36.121Z,17.93
2019-03-19T12:37:06.601Z,11.03
2019-03-19T12:39:37.096Z,10.37
2019-03-19T12:42:07.589Z,10.27
2019-03-19T12:44:38.351Z,10.07
2019-03-19T12:47:08.878Z,6.87
2019-03-19T12:49:39.381Z,8.23
2019-03-19T12:52:11.054Z,8.17
2019-03-19T12:54:41.578Z,6.63
2019-03-19T12:57:12.160Z,19.73
2019-03-19T12:59:42.783Z,16.37
2019-03-19T13:02:13.368Z,24.00
2019-03-19T13:04:43.886Z,14.50
2019-03-19T13:07:14.514Z,14.40
2019-03-19T13:09:53.406Z,13.40
2019-03-19T13:12:23.919Z,9.03
2019-03-19T13:14:54.358Z,13.33
2019-03-19T13:17:24.986Z,26.83
2019-03-19T13:19:55.496Z,8.80
2019-03-19T13:22:26.074Z,26.70
2019-03-19T13:24:56.538Z,12.37
2019-03-19T13:27:27.268Z,7.47
2019-03-19T13:29:57.756Z,11.17
2019-03-19T13:32:28.465Z,12.53
2019-03-19T13:34:58.883Z,12.63
2019-03-19T13:37:29.358Z,14.30
2019-03-19T13:40:00.796Z,7.90
2019-03-19T13:42:31.267Z,9.67
2019-03-19T13:45:01.771Z,7.17
2019-03-19T13:47:32.350Z,9.53
2019-03-19T13:50:02.785Z,8.17
2019-03-19T13:52:33.357Z,17.13
2019-03-19T13:55:04.292Z,7.77
2019-03-19T13:57:34.849Z,15.80
2019-03-19T14:00:06.187Z,8.27
2019-03-19T14:02:36.854Z,11.73
2019-03-19T14:05:08.105Z,10.47
2019-03-19T14:07:39.718Z,13.90
2019-03-19T14:10:10.716Z,9.47
2019-03-19T14:12:41.162Z,4.07
2019-03-19T14:15:13.426Z,9.97
2019-03-19T14:17:44.019Z,5.67
2019-03-19T14:20:15.814Z,6.07
2019-03-19T14:22:46.423Z,5.83
2019-03-19T14:25:16.967Z,7.60
2019-03-19T14:27:47.505Z,13.60
2019-03-19T14:30:20.528Z,14.23
2019-03-19T14:32:51.185Z,19.70
2019-03-19T14:35:21.770Z,16.03
2019-03-19T14:37:52.348Z,12.00
2019-03-19T14:40:22.824Z,12.47
2019-03-19T14:42:53.282Z,15.13
2019-03-19T14:45:23.760Z,8.27
2019-03-19T14:47:54.249Z,10.33
2019-03-19T14:50:24.914Z,20.63
2019-03-19T14:52:55.495Z,18.60
2019-03-19T14:55:26.094Z,52.77
2019-03-19T14:57:56.511Z,16.43
2019-03-19T15:00:27.085Z,26.00
2019-03-19T15:02:57.608Z,14.67
2019-03-19T15:05:28.117Z,11.80
2019-03-19T15:07:58.703Z,14.93
2019-03-19T15:10:29.195Z,22.33
2019-03-19T15:12:59.847Z,40.40
2019-03-19T15:15:30.474Z,28.53
2019-03-19T15:18:01.093Z,16.83
2019-03-19T15:20:31.725Z,31.70
2019-03-19T15:23:02.333Z,17.10
2019-03-19T15:25:32.978Z,14.17
2019-03-19T15:28:03.551Z,35.37
2019-03-19T15:30:34.182Z,15.00
2019-03-19T15:33:04.724Z,30.73
2019-03-19T15:35:35.308Z,43.30
2019-03-19T15:38:05.889Z,25.20
2019-03-19T15:40:36.566Z,19.80
2019-03-19T15:43:07.478Z,36.07
2019-03-19T15:45:38.142Z,19.20
2019-03-19T15:48:08.624Z,14.73
2019-03-19T15:50:39.193Z,18.67
2019-03-19T15:53:09.766Z,18.83
2019-03-19T15:55:40.386Z,49.80
2019-03-19T15:58:10.788Z,24.33
2019-03-19T16:00:41.282Z,21.73
2019-03-19T16:03:11.899Z,16.80
2019-03-19T16:05:42.417Z,18.93
2019-03-19T16:08:12.979Z,20.93
2019-03-19T16:10:43.609Z,25.47
2019-03-19T16:13:14.245Z,19.00
2019-03-19T16:15:44.799Z,19.43
2019-03-19T16:18:15.237Z,20.23
2019-03-19T16:20:45.752Z,16.70
2019-03-19T16:23:16.237Z,16.97
2019-03-19T16:25:46.795Z,19.63
2019-03-19T16:28:17.290Z,24.97
2019-03-19T16:30:47.910Z,23.93
2019-03-19T16:33:18.405Z,24.23
2019-03-19T16:35:49.030Z,29.37
2019-03-19T16:38:20.459Z,29.77
2019-03-19T16:40:50.947Z,50.10
2019-03-19T16:43:21.397Z,33.97
2019-03-19T16:45:51.915Z,17.30
2019-03-19T16:48:22.378Z,20.50
2019-03-19T16:50:52.979Z,34.27
2019-03-19T16:53:23.437Z,28.40
2019-03-19T16:55:53.933Z,33.30
2019-03-19T16:58:24.431Z,31.80
2019-03-19T17:00:54.994Z,34.50
2019-03-19T17:03:25.489Z,68.13
2019-03-19T17:05:56.085Z,73.65
2019-03-19T17:08:26.638Z,56.33
2019-03-19T17:10:57.178Z,21.17
2019-03-19T17:13:27.701Z,65.63
2019-03-19T17:15:58.247Z,248.40
2019-03-19T17:18:28.833Z,140.37
2019-03-19T17:20:59.463Z,115.67
2019-03-19T17:23:29.942Z,51.07
2019-03-19T17:26:00.429Z,39.10
2019-03-19T17:28:31.118Z,29.47
2019-03-19T17:31:01.770Z,22.20
2019-03-19T17:33:33.389Z,30.67
2019-03-19T17:36:03.876Z,33.10
2019-03-19T17:38:35.479Z,34.30
2019-03-19T17:41:06.050Z,40.70
2019-03-19T17:43:36.565Z,29.13
2019-03-19T17:46:07.156Z,26.80
2019-03-19T17:48:37.683Z,26.43
2019-03-19T17:51:08.193Z,62.40
2019-03-19T17:53:38.801Z,20.33
2019-03-19T17:56:10.074Z,30.87
2019-03-19T17:58:41.106Z,21.10
2019-03-19T18:01:17.407Z,22.97
2019-03-19T18:03:44.290Z,22.80
2019-03-19T18:06:14.749Z,11.87
2019-03-19T18:08:45.372Z,70.50
2019-03-19T18:11:16.008Z,47.90
2019-03-19T18:13:46.609Z,23.47
2019-03-19T18:16:17.111Z,40.17
2019-03-19T18:18:47.630Z,29.60
2019-03-19T18:21:18.151Z,71.73
2019-03-19T18:23:48.678Z,32.37
2019-03-19T18:26:19.272Z,24.57
2019-03-19T18:28:49.869Z,25.70
2019-03-19T18:31:20.425Z,18.20
2019-03-19T18:33:51.005Z,17.20
2019-03-19T18:36:23.203Z,59.83
2019-03-19T18:38:53.634Z,19.60
2019-03-19T18:41:24.116Z,24.13
2019-03-19T18:43:54.670Z,17.93
2019-03-19T18:46:25.138Z,21.57
2019-03-19T18:48:55.572Z,42.00
2019-03-19T18:51:26.047Z,34.77
2019-03-19T18:53:56.588Z,30.50
2019-03-19T18:56:27.225Z,30.80
2019-03-19T18:58:57.811Z,41.43
2019-03-19T19:01:28.324Z,51.43
2019-03-19T19:03:59.739Z,36.60
2019-03-19T19:06:30.284Z,117.27
2019-03-19T19:09:00.724Z,57.60
2019-03-19T19:11:32.855Z,46.97
2019-03-19T19:14:03.574Z,68.63
2019-03-19T19:16:34.147Z,52.30
2019-03-19T19:19:04.689Z,47.30
2019-03-19T19:21:35.330Z,50.23
2019-03-19T19:24:05.940Z,55.00
2019-03-19T19:26:36.737Z,54.93
2019-03-19T19:29:07.216Z,63.00
2019-03-19T19:31:37.883Z,89.03
2019-03-19T19:34:08.337Z,61.83
2019-03-19T19:36:38.976Z,53.07
2019-03-19T19:39:09.574Z,45.20
2019-03-19T19:41:40.185Z,38.40
2019-03-19T19:44:10.693Z,32.70
2019-03-19T19:46:41.253Z,36.77
2019-03-19T19:49:11.699Z,32.37
2019-03-19T19:51:42.271Z,35.80
2019-03-19T19:54:12.730Z,36.20
2019-03-19T19:56:43.213Z,38.30
2019-03-19T19:59:13.679Z,111.83
2019-03-19T20:01:44.356Z,65.57
2019-03-19T20:04:14.810Z,81.57
2019-03-19T20:06:45.533Z,62.00
2019-03-19T20:09:16.214Z,63.37
2019-03-19T20:11:46.940Z,83.97
2019-03-19T20:14:17.842Z,86.37
2019-03-19T20:16:48.562Z,99.13
2019-03-19T20:19:19.319Z,99.93
2019-03-19T20:21:49.887Z,122.37
2019-03-19T20:24:20.521Z,100.97
2019-03-19T20:26:51.409Z,105.63
2019-03-19T20:29:22.279Z,105.63
2019-03-19T20:31:52.770Z,108.87
2019-03-19T20:34:23.267Z,140.50
2019-03-19T20:36:53.838Z,129.23
2019-03-19T20:39:26.410Z,151.77
2019-03-19T20:41:56.963Z,166.13
2019-03-19T20:44:27.608Z,144.93
2019-03-19T20:47:00.322Z,219.17
2019-03-19T20:49:30.837Z,146.77
2019-03-19T20:52:01.474Z,134.47
2019-03-19T20:54:32.076Z,140.40
2019-03-19T20:57:02.659Z,149.60
2019-03-19T20:59:34.243Z,135.47
2019-03-19T21:02:04.835Z,150.43
2019-03-19T21:04:35.374Z,148.27
2019-03-19T21:07:06.000Z,150.67
2019-03-19T21:09:36.566Z,129.80
2019-03-19T21:12:07.120Z,148.80
2019-03-19T21:14:37.776Z,156.30
2019-03-19T21:17:08.357Z,153.60
2019-03-19T21:19:38.902Z,164.60
2019-03-19T21:22:09.569Z,162.90
2019-03-19T21:24:40.130Z,179.63
2019-03-19T21:27:10.771Z,176.80
2019-03-19T21:29:41.464Z,186.83
2019-03-19T21:32:12.028Z,177.33
2019-03-19T21:34:42.616Z,165.13
2019-03-19T21:37:13.242Z,210.30
2019-03-19T21:39:43.756Z,189.27
2019-03-19T21:42:14.251Z,208.10
2019-03-19T21:44:44.836Z,203.40
2019-03-19T21:47:15.296Z,188.63
2019-03-19T21:49:46.112Z,168.53
2019-03-19T21:52:16.661Z,177.80
2019-03-19T21:54:47.165Z,178.63
2019-03-19T21:57:17.890Z,186.63
2019-03-19T21:59:48.431Z,177.67
2019-03-19T22:02:18.889Z,183.97
2019-03-19T22:04:49.533Z,183.70
2019-03-19T22:07:20.070Z,185.47
2019-03-19T22:09:50.669Z,195.57
2019-03-19T22:12:22.445Z,196.53
2019-03-19T22:14:53.029Z,198.20
2019-03-19T22:17:23.591Z,212.50
2019-03-19T22:19:54.281Z,214.63
2019-03-19T22:22:24.810Z,192.30
2019-03-19T22:24:55.303Z,184.90
2019-03-19T22:27:25.901Z,206.87
2019-03-19T22:29:56.578Z,201.20
2019-03-19T22:32:27.087Z,214.50
2019-03-19T22:34:57.573Z,205.70
2019-03-19T22:37:28.122Z,198.90
2019-03-19T22:39:58.670Z,184.60
2019-03-19T22:42:29.168Z,208.43
2019-03-19T22:44:59.708Z,183.80
2019-03-19T22:47:31.196Z,174.27
2019-03-19T22:50:01.819Z,169.07
2019-03-19T22:52:32.386Z,166.40
2019-03-19T22:55:02.887Z,153.30
2019-03-19T22:57:33.502Z,158.60
2019-03-19T23:00:05.786Z,166.23
2019-03-19T23:02:38.026Z,173.10
2019-03-19T23:05:08.866Z,145.47
2019-03-19T23:07:39.453Z,148.90
2019-03-19T23:10:10.094Z,151.77
2019-03-19T23:12:40.757Z,149.00
2019-03-19T23:15:11.828Z,161.73
2019-03-19T23:17:42.388Z,167.97
2019-03-19T23:20:14.076Z,174.93
2019-03-19T23:22:44.591Z,160.63
2019-03-19T23:25:15.267Z,189.80
2019-03-19T23:27:45.760Z,166.73
2019-03-19T23:30:16.406Z,177.70
2019-03-19T23:32:47.031Z,180.23
2019-03-19T23:35:17.561Z,150.10
2019-03-19T23:37:48.171Z,158.20
2019-03-19T23:40:18.732Z,151.73
2019-03-19T23:42:49.335Z,143.30
2019-03-19T23:45:19.883Z,154.60
2019-03-19T23:47:50.471Z,152.67
2019-03-19T23:50:21.041Z,153.77
2019-03-19T23:52:51.605Z,142.23
2019-03-19T23:55:22.125Z,150.17
2019-03-19T23:57:52.634Z,159.23
